Terminal Aerodrome Forecast
Issued by NWS Northern Indiana

Home | Current Version | Previous Version | Text Only | Print | Product List | Glossary On
Versions: 1 2 3 4 5 6 7 8 9 10 11 12 13 14 15 16 17
000
FTUS43 KIWX 201340 AAA
TAFFWA
TAF AMD
KFWA 201340Z 2014/2112 27009KT P6SM -SHRA VCTS BKN050CB OVC100
      TEMPO 2014/2016 5SM SHRA OVC035
     FM201600 24009KT P6SM SCT100
     FM202000 24010G19KT P6SM VCTS BKN150CB
     FM210200 29004KT P6SM BKN200=

USA.gov is the U.S. government's official web portal to all federal, state and local government web resources and services.